createdAt,value
2018-12-12T00:01:25.164Z,5.97
2018-12-12T00:03:53.539Z,5.63
2018-12-12T00:06:21.775Z,5.40
2018-12-12T00:08:50.056Z,5.62
2018-12-12T00:11:18.505Z,4.80
2018-12-12T00:13:46.753Z,4.83
2018-12-12T00:16:15.122Z,4.70
2018-12-12T00:18:43.378Z,4.17
2018-12-12T00:21:11.620Z,5.23
2018-12-12T00:23:39.918Z,4.90
2018-12-12T00:26:08.472Z,4.60
2018-12-12T00:28:36.707Z,4.57
2018-12-12T00:31:04.987Z,4.57
2018-12-12T00:33:33.243Z,4.40
2018-12-12T00:36:01.500Z,4.97
2018-12-12T00:38:29.751Z,4.83
2018-12-12T00:40:58.019Z,4.47
2018-12-12T00:43:26.274Z,4.73
2018-12-12T00:45:54.519Z,4.60
2018-12-12T00:48:22.776Z,4.10
2018-12-12T00:50:51.023Z,3.92
2018-12-12T00:53:19.314Z,4.53
2018-12-12T00:55:47.609Z,4.20
2018-12-12T00:58:15.889Z,4.50
2018-12-12T01:00:44.131Z,5.07
2018-12-12T01:03:12.458Z,4.40
2018-12-12T01:08:18.878Z,4.53
2018-12-12T01:10:49.092Z,3.93
2018-12-12T01:13:17.352Z,5.33
2018-12-12T01:15:45.618Z,4.60
2018-12-12T01:18:13.867Z,4.20
2018-12-12T01:20:42.143Z,4.07
2018-12-12T01:23:10.405Z,4.57
2018-12-12T01:25:38.660Z,4.23
2018-12-12T01:28:06.937Z,4.60
2018-12-12T01:30:35.200Z,4.83
2018-12-12T01:33:03.451Z,3.90
2018-12-12T01:35:31.745Z,5.23
2018-12-12T01:38:00.017Z,4.40
2018-12-12T01:40:28.268Z,4.40
2018-12-12T01:42:56.575Z,4.60
2018-12-12T01:45:24.845Z,4.10
2018-12-12T01:47:53.159Z,4.40
2018-12-12T01:50:21.412Z,4.50
2018-12-12T01:52:49.656Z,4.63
2018-12-12T01:55:17.941Z,4.37
2018-12-12T01:57:46.197Z,4.50
2018-12-12T02:00:14.556Z,4.17
2018-12-12T02:02:42.813Z,4.37
2018-12-12T02:05:11.084Z,4.60
2018-12-12T02:07:39.385Z,5.73
2018-12-12T02:10:07.899Z,5.70
2018-12-12T02:12:37.397Z,4.77
2018-12-12T02:15:05.828Z,4.27
2018-12-12T02:17:34.118Z,4.27
2018-12-12T02:20:02.368Z,4.37
2018-12-12T02:22:30.622Z,3.90
2018-12-12T02:24:58.888Z,4.20
2018-12-12T02:27:27.168Z,3.73
2018-12-12T02:29:55.501Z,3.57
2018-12-12T02:32:24.028Z,3.93
2018-12-12T02:34:52.293Z,4.40
2018-12-12T02:37:20.550Z,3.77
2018-12-12T02:39:48.849Z,4.63
2018-12-12T02:42:17.130Z,4.10
2018-12-12T02:44:45.382Z,4.23
2018-12-12T02:47:13.660Z,4.10
2018-12-12T02:49:41.911Z,4.80
2018-12-12T02:52:10.194Z,4.50
2018-12-12T02:54:38.538Z,4.23
2018-12-12T02:57:06.843Z,3.93
2018-12-12T02:59:35.098Z,4.07
2018-12-12T03:02:03.356Z,4.23
2018-12-12T03:04:31.631Z,4.60
2018-12-12T03:06:59.919Z,4.63
2018-12-12T03:09:28.232Z,4.00
2018-12-12T03:11:56.529Z,4.17
2018-12-12T03:14:25.079Z,4.00
2018-12-12T03:16:53.377Z,4.43
2018-12-12T03:19:21.633Z,4.17
2018-12-12T03:21:49.902Z,3.63
2018-12-12T03:24:19.375Z,3.80
2018-12-12T03:26:47.639Z,3.93
2018-12-12T03:29:15.893Z,3.43
2018-12-12T03:31:44.204Z,3.37
2018-12-12T03:34:12.511Z,3.60
2018-12-12T03:36:40.831Z,4.10
2018-12-12T03:39:09.134Z,3.73
2018-12-12T03:41:37.431Z,3.67
2018-12-12T03:44:05.685Z,3.47
2018-12-12T03:46:33.928Z,3.70
2018-12-12T03:49:02.222Z,3.20
2018-12-12T03:51:30.469Z,3.60
2018-12-12T03:53:58.720Z,3.83
2018-12-12T03:56:26.999Z,3.83
2018-12-12T03:58:55.488Z,3.10
2018-12-12T04:01:23.746Z,4.28
2018-12-12T04:03:51.988Z,3.10
2018-12-12T04:06:20.256Z,3.47
2018-12-12T04:08:48.543Z,3.63
2018-12-12T04:11:16.827Z,3.20
2018-12-12T04:13:45.073Z,3.63
2018-12-12T04:16:13.670Z,3.90
2018-12-12T04:18:41.927Z,3.23
2018-12-12T04:21:10.214Z,3.65
2018-12-12T04:23:38.460Z,3.40
2018-12-12T04:26:06.735Z,3.30
2018-12-12T04:28:34.991Z,3.60
2018-12-12T04:31:03.243Z,3.90
2018-12-12T04:33:31.497Z,4.10
2018-12-12T04:35:59.788Z,3.13
2018-12-12T04:38:28.093Z,3.60
2018-12-12T04:40:56.342Z,3.30
2018-12-12T04:43:24.587Z,3.10
2018-12-12T04:45:53.542Z,3.40
2018-12-12T04:48:21.813Z,3.20
2018-12-12T04:50:50.096Z,3.10
2018-12-12T04:53:18.369Z,3.20
2018-12-12T04:55:46.627Z,3.30
2018-12-12T04:58:14.910Z,3.50
2018-12-12T05:00:43.217Z,3.73
2018-12-12T05:03:11.469Z,3.83
2018-12-12T05:05:39.724Z,3.70
2018-12-12T05:08:08.056Z,4.00
2018-12-12T05:10:36.329Z,2.80
2018-12-12T05:13:04.565Z,3.17
2018-12-12T05:15:32.836Z,3.20
2018-12-12T05:18:01.122Z,3.60
2018-12-12T05:20:29.405Z,3.13
2018-12-12T05:22:57.727Z,3.67
2018-12-12T05:25:26.027Z,5.37
2018-12-12T05:27:54.284Z,5.43
2018-12-12T05:30:22.536Z,4.93
2018-12-12T05:32:50.820Z,4.87
2018-12-12T05:35:19.152Z,3.90
2018-12-12T05:37:51.044Z,4.37
2018-12-12T05:40:18.285Z,4.37
2018-12-12T05:42:46.733Z,4.20
2018-12-12T05:45:15.030Z,4.30
2018-12-12T05:47:44.314Z,4.45
2018-12-12T05:50:12.713Z,4.40
2018-12-12T05:52:40.961Z,4.87
2018-12-12T05:55:09.219Z,4.90
2018-12-12T05:57:37.522Z,5.50
2018-12-12T06:00:07.273Z,4.90
2018-12-12T06:02:35.537Z,5.13
2018-12-12T06:05:04.053Z,5.00
2018-12-12T06:07:32.331Z,4.30
2018-12-12T06:10:00.630Z,5.13
2018-12-12T06:12:28.896Z,5.17
2018-12-12T06:14:57.186Z,4.30
2018-12-12T06:17:25.473Z,4.97
2018-12-12T06:19:54.044Z,4.73
2018-12-12T06:22:22.517Z,4.83
2018-12-12T06:24:50.872Z,4.97
2018-12-12T06:27:19.159Z,5.10
2018-12-12T06:29:47.420Z,4.80
2018-12-12T06:32:15.727Z,5.10
2018-12-12T06:34:43.994Z,5.30
2018-12-12T06:37:12.272Z,5.20
2018-12-12T06:39:40.532Z,5.30
2018-12-12T06:42:08.783Z,5.40
2018-12-12T06:44:37.146Z,4.83
2018-12-12T06:47:05.421Z,4.70
2018-12-12T06:49:33.693Z,5.30
2018-12-12T06:52:01.945Z,4.92
2018-12-12T06:54:30.201Z,5.47
2018-12-12T06:56:58.463Z,6.17
2018-12-12T06:59:26.764Z,5.97
2018-12-12T07:01:55.003Z,5.53
2018-12-12T07:04:23.288Z,5.43
2018-12-12T07:06:51.551Z,5.13
2018-12-12T07:09:19.852Z,5.13
2018-12-12T07:11:48.138Z,5.50
2018-12-12T07:14:16.399Z,5.13
2018-12-12T07:16:44.684Z,5.47
2018-12-12T07:19:13.266Z,5.90
2018-12-12T07:21:41.665Z,5.80
2018-12-12T07:24:10.045Z,5.47
2018-12-12T07:26:38.318Z,5.78
2018-12-12T07:29:06.584Z,5.83
2018-12-12T07:31:34.851Z,5.63
2018-12-12T07:34:03.486Z,7.27
2018-12-12T07:36:31.744Z,6.83
2018-12-12T07:39:00.010Z,7.30
2018-12-12T07:41:28.551Z,6.87
2018-12-12T07:43:56.804Z,7.07
2018-12-12T07:46:25.431Z,6.90
2018-12-12T07:48:53.683Z,7.87
2018-12-12T07:51:21.988Z,8.27
2018-12-12T07:53:50.264Z,7.90
2018-12-12T07:56:18.853Z,7.63
2018-12-12T07:58:47.113Z,7.97
2018-12-12T08:01:15.379Z,9.00
2018-12-12T08:03:43.667Z,8.60
2018-12-12T08:06:11.931Z,8.73
2018-12-12T08:08:40.190Z,9.30
2018-12-12T08:11:08.464Z,11.07
2018-12-12T08:13:36.759Z,10.70
2018-12-12T08:16:05.220Z,9.43
2018-12-12T08:18:33.487Z,10.57
2018-12-12T08:21:02.316Z,10.23
2018-12-12T08:26:09.972Z,10.20
2018-12-12T08:28:38.284Z,10.57
2018-12-12T08:31:06.551Z,9.73
2018-12-12T08:33:34.828Z,10.50
2018-12-12T08:36:03.096Z,11.90
2018-12-12T08:38:31.375Z,10.73
2018-12-12T08:40:59.652Z,11.07
2018-12-12T08:43:27.926Z,8.73
2018-12-12T08:45:56.226Z,9.90
2018-12-12T08:48:24.483Z,10.33
2018-12-12T08:50:52.754Z,11.63
2018-12-12T08:53:21.018Z,9.10
2018-12-12T08:55:49.340Z,7.67
2018-12-12T08:58:17.624Z,7.47
2018-12-12T09:00:45.883Z,6.42
2018-12-12T09:03:17.556Z,7.50
2018-12-12T09:05:44.428Z,7.77
2018-12-12T09:08:12.712Z,7.90
2018-12-12T09:10:40.975Z,9.43
2018-12-12T09:13:09.299Z,8.65
2018-12-12T09:15:37.573Z,6.37
2018-12-12T09:18:05.860Z,8.27
2018-12-12T09:20:34.120Z,6.80
2018-12-12T09:23:02.401Z,6.53
2018-12-12T09:25:30.671Z,6.63
2018-12-12T09:27:58.924Z,6.53
2018-12-12T09:30:27.168Z,7.73
2018-12-12T09:32:55.427Z,6.40
2018-12-12T09:35:23.679Z,6.12
2018-12-12T09:37:51.939Z,6.43
2018-12-12T09:40:20.200Z,6.03
2018-12-12T09:42:48.451Z,7.00
2018-12-12T09:45:21.681Z,6.80
2018-12-12T09:47:47.048Z,9.90
2018-12-12T09:50:15.563Z,6.17
2018-12-12T09:52:46.700Z,6.43
2018-12-12T09:55:14.992Z,6.73
2018-12-12T09:57:43.297Z,7.23
2018-12-12T10:00:11.589Z,6.00
2018-12-12T10:02:39.904Z,6.43
2018-12-12T10:05:08.490Z,5.62
2018-12-12T10:07:36.742Z,6.67
2018-12-12T10:10:05.387Z,6.43
2018-12-12T10:12:33.649Z,6.43
2018-12-12T10:15:01.908Z,5.43
2018-12-12T10:17:30.212Z,5.97
2018-12-12T10:19:58.511Z,5.30
2018-12-12T10:22:26.846Z,5.70
2018-12-12T10:24:55.156Z,6.10
2018-12-12T10:27:23.408Z,5.83
2018-12-12T10:29:51.695Z,5.83
2018-12-12T10:34:58.082Z,5.43
2018-12-12T10:37:26.376Z,5.10
2018-12-12T10:39:54.643Z,5.90
2018-12-12T10:42:23.069Z,5.87
2018-12-12T10:44:51.310Z,5.77
2018-12-12T10:47:19.569Z,5.70
2018-12-12T10:49:47.821Z,5.83
2018-12-12T10:52:16.088Z,6.13
2018-12-12T10:54:44.365Z,6.27
2018-12-12T10:57:12.678Z,7.00
2018-12-12T10:59:40.986Z,6.70
2018-12-12T11:02:14.517Z,6.25
2018-12-12T11:04:42.821Z,6.93
2018-12-12T11:07:11.095Z,6.57
2018-12-12T11:09:39.402Z,7.03
2018-12-12T11:12:07.682Z,6.60
2018-12-12T11:14:35.920Z,7.10
2018-12-12T11:17:04.275Z,6.80
2018-12-12T11:19:32.520Z,7.10
2018-12-12T11:22:00.925Z,6.40
2018-12-12T11:24:29.233Z,7.17
2018-12-12T11:26:57.556Z,6.10
2018-12-12T11:29:25.823Z,6.30
2018-12-12T11:31:54.163Z,7.13
2018-12-12T11:34:22.408Z,6.67
2018-12-12T11:36:50.742Z,6.50
2018-12-12T11:39:18.992Z,6.63
2018-12-12T11:41:47.247Z,7.60
2018-12-12T11:44:15.495Z,6.63
2018-12-12T11:46:44.120Z,7.47
2018-12-12T11:49:12.452Z,7.43
2018-12-12T11:51:40.695Z,7.75
2018-12-12T11:54:08.959Z,7.67
2018-12-12T11:56:37.236Z,8.53
2018-12-12T11:59:05.484Z,8.23
2018-12-12T12:01:33.747Z,8.38
2018-12-12T12:04:02.017Z,7.80
2018-12-12T12:06:30.353Z,8.17
2018-12-12T12:08:58.723Z,8.03
2018-12-12T12:11:26.969Z,8.50
2018-12-12T12:13:55.227Z,7.97
2018-12-12T12:16:24.749Z,7.27
2018-12-12T12:18:53.021Z,10.10
2018-12-12T12:21:21.597Z,9.13
2018-12-12T12:23:49.850Z,11.13
2018-12-12T12:26:18.343Z,11.50
2018-12-12T12:28:46.637Z,11.47
2018-12-12T12:31:14.909Z,10.63
2018-12-12T12:33:43.280Z,11.67
2018-12-12T12:36:11.536Z,6.80
2018-12-12T12:38:39.795Z,8.33
2018-12-12T12:41:08.059Z,8.85
2018-12-12T12:43:36.325Z,7.50
2018-12-12T12:46:04.595Z,8.33
2018-12-12T12:48:32.860Z,8.17
2018-12-12T12:51:01.120Z,7.97
2018-12-12T12:53:29.416Z,7.93
2018-12-12T12:55:57.681Z,7.80
2018-12-12T12:58:25.968Z,7.90
2018-12-12T13:00:54.231Z,7.10
2018-12-12T13:03:22.488Z,6.97
2018-12-12T13:05:50.855Z,7.43
2018-12-12T13:08:19.122Z,7.97
2018-12-12T13:10:47.571Z,7.70
2018-12-12T13:13:16.268Z,6.03
2018-12-12T13:15:45.057Z,6.50
2018-12-12T13:18:14.639Z,6.03
2018-12-12T13:20:42.927Z,6.30
2018-12-12T13:23:11.284Z,6.10
2018-12-12T13:25:39.524Z,6.30
2018-12-12T13:28:07.822Z,5.90
2018-12-12T13:30:36.069Z,7.07
2018-12-12T13:33:04.432Z,7.07
2018-12-12T13:35:32.767Z,7.03
2018-12-12T13:38:01.067Z,6.77
2018-12-12T13:40:29.351Z,7.07
2018-12-12T13:42:57.688Z,6.83
2018-12-12T13:45:25.980Z,8.90
2018-12-12T13:47:54.264Z,6.30
2018-12-12T13:50:22.523Z,6.23
2018-12-12T13:52:50.785Z,35.73
2018-12-12T13:55:19.042Z,7.22
2018-12-12T13:57:47.315Z,5.97
2018-12-12T14:00:15.647Z,9.30
2018-12-12T14:02:43.926Z,6.27
2018-12-12T14:05:12.227Z,5.67
2018-12-12T14:07:40.481Z,33.07
2018-12-12T14:10:08.828Z,14.67
2018-12-12T14:12:37.100Z,6.03
2018-12-12T14:15:06.029Z,20.73
2018-12-12T14:17:34.328Z,31.97
2018-12-12T14:20:02.583Z,7.30
2018-12-12T14:22:30.852Z,8.47
2018-12-12T14:24:59.146Z,8.90
2018-12-12T14:27:27.460Z,16.80
2018-12-12T14:29:55.996Z,8.40
2018-12-12T14:32:24.239Z,13.57
2018-12-12T14:34:52.492Z,9.18
2018-12-12T14:37:20.780Z,15.40
2018-12-12T14:39:49.152Z,11.97
2018-12-12T14:42:17.446Z,21.30
2018-12-12T14:44:45.726Z,19.47
2018-12-12T14:47:13.975Z,16.07
2018-12-12T14:52:20.500Z,12.57
2018-12-12T14:54:48.783Z,14.35
2018-12-12T14:57:17.145Z,11.23
2018-12-12T14:59:45.393Z,9.45
2018-12-12T15:02:13.696Z,9.33
2018-12-12T15:04:42.256Z,9.77
2018-12-12T15:07:10.528Z,10.50
2018-12-12T15:09:38.796Z,10.45
2018-12-12T15:12:07.132Z,9.90
2018-12-12T15:14:35.386Z,10.00
2018-12-12T15:17:03.675Z,9.93
2018-12-12T15:19:32.213Z,10.85
2018-12-12T15:22:00.469Z,11.10
2018-12-12T15:24:28.896Z,9.60
2018-12-12T15:26:57.196Z,10.10
2018-12-12T15:29:25.453Z,9.90
2018-12-12T15:31:53.805Z,10.23
2018-12-12T15:34:22.128Z,9.77
2018-12-12T15:36:50.453Z,9.97
2018-12-12T15:39:18.749Z,10.20
2018-12-12T15:41:47.004Z,10.80
2018-12-12T15:44:15.308Z,10.50
2018-12-12T15:49:21.923Z,10.80
2018-12-12T15:51:50.299Z,10.90
2018-12-12T15:54:18.551Z,11.50
2018-12-12T15:56:46.906Z,12.17
2018-12-12T15:59:15.162Z,11.63
2018-12-12T16:01:43.452Z,12.00
2018-12-12T16:04:11.774Z,13.20
2018-12-12T16:06:40.059Z,13.50
2018-12-12T16:09:08.418Z,13.37
2018-12-12T16:11:36.776Z,13.57
2018-12-12T16:14:05.036Z,14.80
2018-12-12T16:16:33.331Z,13.27
2018-12-12T16:19:01.609Z,13.07
2018-12-12T16:21:29.900Z,13.93
2018-12-12T16:23:58.165Z,13.07
2018-12-12T16:26:26.601Z,14.63
2018-12-12T16:28:54.929Z,14.87
2018-12-12T16:31:23.224Z,14.27
2018-12-12T16:33:51.491Z,14.17
2018-12-12T16:36:19.792Z,14.50
2018-12-12T16:41:26.245Z,15.97
2018-12-12T16:43:54.508Z,20.37
2018-12-12T16:46:22.830Z,22.83
2018-12-12T16:48:51.159Z,19.87
2018-12-12T16:51:19.423Z,16.27
2018-12-12T16:53:48.110Z,19.60
2018-12-12T16:56:16.396Z,17.83
2018-12-12T16:58:44.962Z,18.67
2018-12-12T17:01:13.239Z,19.90
2018-12-12T17:03:41.522Z,14.63
2018-12-12T17:06:09.815Z,15.57
2018-12-12T17:08:38.079Z,15.90
2018-12-12T17:11:06.386Z,16.77
2018-12-12T17:13:34.643Z,18.20
2018-12-12T17:16:02.971Z,22.30
2018-12-12T17:18:31.527Z,16.07
2018-12-12T17:20:59.780Z,14.80
2018-12-12T17:23:28.046Z,14.20
2018-12-12T17:25:56.343Z,13.97
2018-12-12T17:28:24.598Z,13.77
2018-12-12T17:30:52.946Z,13.47
2018-12-12T17:33:21.209Z,12.17
2018-12-12T17:35:49.462Z,11.73
2018-12-12T17:38:17.854Z,13.20
2018-12-12T17:40:46.145Z,13.32
2018-12-12T17:43:14.399Z,13.57
2018-12-12T17:45:43.015Z,13.03
2018-12-12T17:48:11.312Z,13.40
2018-12-12T17:50:39.617Z,13.68
2018-12-12T17:53:07.933Z,12.60
2018-12-12T17:55:36.212Z,13.90
2018-12-12T17:58:04.518Z,12.47
2018-12-12T18:00:33.120Z,13.30
2018-12-12T18:03:01.388Z,13.30
2018-12-12T18:05:29.656Z,17.33
2018-12-12T18:07:57.999Z,18.00
2018-12-12T18:10:26.300Z,19.85
2018-12-12T18:12:54.639Z,18.53
2018-12-12T18:15:22.940Z,31.23
2018-12-12T18:17:51.203Z,16.93
2018-12-12T18:20:19.535Z,18.80
2018-12-12T18:22:47.920Z,17.92
2018-12-12T18:25:16.764Z,14.65
2018-12-12T18:27:45.037Z,13.30
2018-12-12T18:30:13.388Z,13.53
2018-12-12T18:32:41.692Z,13.33
2018-12-12T18:35:09.982Z,14.33
2018-12-12T18:37:38.385Z,14.33
2018-12-12T18:42:45.618Z,14.50
2018-12-12T18:45:13.898Z,12.97
2018-12-12T18:47:42.155Z,12.90
2018-12-12T18:50:10.460Z,12.80
2018-12-12T18:52:38.711Z,12.93
2018-12-12T18:55:07.073Z,12.47
2018-12-12T18:57:36.348Z,13.87
2018-12-12T19:00:05.675Z,14.57
2018-12-12T19:02:34.031Z,16.37
2018-12-12T19:05:02.424Z,16.17
2018-12-12T19:07:30.769Z,15.10
2018-12-12T19:09:59.075Z,13.87
2018-12-12T19:15:08.015Z,15.53
2018-12-12T19:17:36.332Z,15.10
2018-12-12T19:20:06.893Z,15.80
2018-12-12T19:22:35.211Z,17.12
2018-12-12T19:25:04.093Z,16.80
2018-12-12T19:27:32.360Z,16.23
2018-12-12T19:30:00.667Z,15.43
2018-12-12T19:32:28.976Z,16.13
2018-12-12T19:34:57.275Z,16.07
2018-12-12T19:37:26.352Z,16.07
2018-12-12T19:39:54.663Z,17.40
2018-12-12T19:42:23.237Z,16.80
2018-12-12T19:44:51.503Z,15.60
2018-12-12T19:47:19.789Z,16.37
2018-12-12T19:49:48.092Z,16.30
2018-12-12T19:52:16.448Z,17.07
2018-12-12T19:54:44.763Z,14.97
2018-12-12T19:57:13.024Z,14.63
2018-12-12T19:59:41.284Z,14.50
2018-12-12T20:02:09.587Z,15.50
2018-12-12T20:04:37.921Z,15.57
2018-12-12T20:07:06.276Z,15.77
2018-12-12T20:09:34.558Z,15.53
2018-12-12T20:12:02.861Z,16.57
2018-12-12T20:14:31.129Z,15.05
2018-12-12T20:16:59.437Z,15.70
2018-12-12T20:19:27.787Z,14.68
2018-12-12T20:21:56.092Z,14.80
2018-12-12T20:24:24.453Z,15.50
2018-12-12T20:26:52.742Z,16.37
2018-12-12T20:29:21.088Z,15.97
2018-12-12T20:31:49.344Z,16.43
2018-12-12T20:34:17.635Z,16.83
2018-12-12T20:36:46.040Z,16.00
2018-12-12T20:39:14.295Z,16.77
2018-12-12T20:44:20.811Z,19.43
2018-12-12T20:46:49.111Z,18.70
2018-12-12T20:49:17.419Z,16.80
2018-12-12T20:51:45.720Z,15.90
2018-12-12T20:54:13.987Z,15.23
2018-12-12T20:56:42.291Z,13.90
2018-12-12T20:59:10.588Z,14.87
2018-12-12T21:01:38.876Z,15.20
2018-12-12T21:04:07.132Z,13.87
2018-12-12T21:06:36.725Z,16.17
2018-12-12T21:09:06.632Z,15.60
2018-12-12T21:11:34.887Z,15.97
2018-12-12T21:14:04.493Z,14.57
2018-12-12T21:16:32.756Z,13.00
2018-12-12T21:19:01.060Z,12.63
2018-12-12T21:21:29.371Z,12.53
2018-12-12T21:23:57.725Z,12.50
2018-12-12T21:26:26.372Z,13.03
2018-12-12T21:28:54.646Z,12.88
2018-12-12T21:31:22.903Z,12.27
2018-12-12T21:33:51.208Z,12.30
2018-12-12T21:36:19.475Z,12.87
2018-12-12T21:38:47.781Z,11.93
2018-12-12T21:41:16.085Z,12.75
2018-12-12T21:46:22.566Z,12.27
2018-12-12T21:48:50.844Z,11.43
2018-12-12T21:51:19.162Z,10.45
2018-12-12T21:53:47.414Z,10.50
2018-12-12T21:56:15.695Z,10.03
2018-12-12T21:58:43.970Z,10.23
2018-12-12T22:01:12.272Z,9.93
2018-12-12T22:03:40.557Z,9.73
2018-12-12T22:06:08.841Z,8.87
2018-12-12T22:08:37.098Z,8.67
2018-12-12T22:11:05.443Z,8.60
2018-12-12T22:13:33.716Z,9.50
2018-12-12T22:16:02.000Z,8.50
2018-12-12T22:18:30.271Z,9.07
2018-12-12T22:20:58.570Z,8.33
2018-12-12T22:23:26.884Z,9.30
2018-12-12T22:25:55.187Z,9.97
2018-12-12T22:28:23.455Z,9.08
2018-12-12T22:30:51.715Z,8.27
2018-12-12T22:33:19.989Z,8.90
2018-12-12T22:35:48.465Z,8.33
2018-12-12T22:38:16.809Z,8.33
2018-12-12T22:40:45.063Z,8.93
2018-12-12T22:43:13.364Z,8.33
2018-12-12T22:45:41.665Z,8.80
2018-12-12T22:48:10.140Z,8.37
2018-12-12T22:50:38.446Z,9.60
2018-12-12T22:53:06.741Z,9.13
2018-12-12T22:55:35.028Z,9.00
2018-12-12T22:58:03.554Z,8.60
2018-12-12T23:00:35.820Z,9.27
2018-12-12T23:03:04.671Z,9.38
2018-12-12T23:05:32.927Z,9.33
2018-12-12T23:08:01.478Z,9.20
2018-12-12T23:10:29.769Z,9.90
2018-12-12T23:12:58.040Z,10.32
2018-12-12T23:15:26.313Z,9.67
2018-12-12T23:17:54.595Z,10.57
2018-12-12T23:20:22.855Z,10.67
2018-12-12T23:22:51.136Z,11.30
2018-12-12T23:25:19.673Z,11.37
2018-12-12T23:27:47.939Z,10.33
2018-12-12T23:30:16.235Z,11.17
2018-12-12T23:32:44.535Z,10.80
2018-12-12T23:35:12.825Z,11.07
2018-12-12T23:37:41.115Z,11.73
2018-12-12T23:40:09.436Z,11.40
2018-12-12T23:42:37.734Z,11.03
2018-12-12T23:45:06.222Z,10.80
2018-12-12T23:47:34.515Z,11.57
2018-12-12T23:50:02.846Z,11.20
2018-12-12T23:52:31.126Z,11.20
2018-12-12T23:54:59.412Z,10.83
